Time;durP1;ratioP1;P1;durP2;ratioP2;P2;SDS_P1;SDS_P2;PMS_P1;PMS_P2;Temp;Humidity;BMP_temperature;BMP_pressure;BME280_temperature;BME280_humidity;BME280_pressure;Samples;Min_cycle;Max_cycle;Signal;HPM_P1;HPM_P2
2022/07/20 00:02:03;;;;;;;2.92;2.53;;;20.90;99.90;;;;;;4729759;30;20067;-76
2022/07/20 00:04:30;;;;;;;2.78;2.28;;;21.00;99.90;;;;;;4767556;30;20141;-76
2022/07/20 00:06:57;;;;;;;2.53;1.80;;;21.00;99.90;;;;;;4744439;30;20524;-76
2022/07/20 00:12:09;;;;;;;2.67;1.92;;;21.00;99.90;;;;;;4738388;30;20074;-76
2022/07/20 00:14:36;;;;;;;2.88;2.10;;;21.10;99.90;;;;;;4770032;30;20086;-76
2022/07/20 00:17:03;;;;;;;4.25;2.65;;;21.10;99.90;;;;;;4731357;30;20101;-76
2022/07/20 00:19:30;;;;;;;2.30;2.03;;;21.00;99.90;;;;;;4745792;30;20066;-77
2022/07/20 00:21:57;;;;;;;2.20;1.92;;;20.90;99.90;;;;;;4722540;30;20051;-78
2022/07/20 00:24:24;;;;;;;2.25;1.70;;;20.90;99.90;;;;;;4773518;30;20064;-77
2022/07/20 00:26:50;;;;;;;2.00;1.70;;;20.90;99.90;;;;;;4775508;30;20060;-77
2022/07/20 00:29:18;;;;;;;2.92;2.10;;;20.90;99.90;;;;;;4747001;30;20060;-77
2022/07/20 00:31:45;;;;;;;2.97;2.38;;;20.90;99.90;;;;;;4744757;30;20051;-77
2022/07/20 00:34:11;;;;;;;2.65;1.73;;;20.80;99.90;;;;;;4747445;30;20083;-77
2022/07/20 00:36:38;;;;;;;3.13;1.90;;;20.90;99.90;;;;;;4746413;30;20056;-77
2022/07/20 00:39:05;;;;;;;2.78;1.70;;;20.90;99.90;;;;;;4732448;30;20123;-78
2022/07/20 00:41:32;;;;;;;2.70;1.90;;;20.90;99.90;;;;;;4747080;30;20113;-79
2022/07/20 00:44:02;;;;;;;2.20;1.67;;;20.90;99.90;;;;;;4752030;30;20508;-76
2022/07/20 00:46:30;;;;;;;2.83;2.20;;;20.90;99.90;;;;;;4761674;30;20218;-76
2022/07/20 00:48:58;;;;;;;2.58;2.10;;;20.80;99.90;;;;;;4732030;30;20063;-77
2022/07/20 00:51:24;;;;;;;2.83;2.60;;;20.80;99.90;;;;;;4719560;30;20108;-76
2022/07/20 00:53:51;;;;;;;2.45;2.20;;;20.80;99.90;;;;;;4746799;30;20060;-76
2022/07/20 00:56:18;;;;;;;3.20;2.13;;;20.70;99.90;;;;;;4744893;30;20096;-77
2022/07/20 00:58:45;;;;;;;1.85;1.60;;;20.70;99.90;;;;;;4735976;30;20055;-77
2022/07/20 01:01:13;;;;;;;2.70;2.20;;;20.70;99.90;;;;;;4769954;30;20145;-76
2022/07/20 01:03:40;;;;;;;3.25;2.55;;;20.70;99.90;;;;;;4756793;30;20052;-77
2022/07/20 01:06:08;;;;;;;3.00;2.53;;;20.70;99.90;;;;;;4744725;30;20078;-76
2022/07/20 01:08:35;;;;;;;3.17;2.28;;;20.60;99.90;;;;;;4723009;30;20047;-77
2022/07/20 01:11:02;;;;;;;3.17;1.98;;;20.60;99.90;;;;;;4720866;30;20079;-77
2022/07/20 01:13:29;;;;;;;3.40;2.95;;;20.60;99.90;;;;;;4765487;30;20555;-76
2022/07/20 01:15:56;;;;;;;4.07;3.05;;;20.50;99.90;;;;;;4754699;30;20557;-78
2022/07/20 01:18:22;;;;;;;3.00;2.67;;;20.50;99.90;;;;;;4746190;30;20482;-77
2022/07/20 01:20:50;;;;;;;4.15;2.78;;;20.50;99.90;;;;;;4734594;30;20508;-76
2022/07/20 01:23:17;;;;;;;2.60;2.40;;;20.50;99.90;;;;;;4731613;30;20052;-80
2022/07/20 01:25:44;;;;;;;2.63;2.20;;;20.50;99.90;;;;;;4735721;30;20063;-77
2022/07/20 01:28:11;;;;;;;2.88;2.30;;;20.50;99.90;;;;;;4716670;30;20455;-77
2022/07/20 01:44:02;;;;;;;3.42;2.20;;;20.50;99.90;;;;;;4868630;24;20084;-87
2022/07/20 01:46:29;;;;;;;2.78;2.22;;;20.30;99.90;;;;;;4758868;29;20058;-88
2022/07/20 01:48:56;;;;;;;2.05;1.73;;;20.30;99.90;;;;;;4802315;29;20053;-87
2022/07/20 01:51:23;;;;;;;2.55;1.95;;;20.30;99.90;;;;;;4789740;29;20050;-87
2022/07/20 01:53:50;;;;;;;2.25;1.90;;;20.20;99.90;;;;;;4775416;29;20123;-87
2022/07/20 01:56:18;;;;;;;2.28;1.75;;;20.10;99.90;;;;;;4790016;29;20081;-89
2022/07/20 01:58:45;;;;;;;3.72;1.98;;;20.20;99.90;;;;;;4771675;29;20081;-88
2022/07/20 02:01:13;;;;;;;2.60;1.92;;;20.10;99.90;;;;;;4777002;29;20483;-90
2022/07/20 02:03:41;;;;;;;2.70;2.10;;;20.10;99.90;;;;;;4795244;29;20066;-89
2022/07/20 02:06:08;;;;;;;2.75;1.80;;;20.10;99.90;;;;;;4785721;29;20191;-89
2022/07/20 02:08:37;;;;;;;2.65;1.73;;;20.10;99.90;;;;;;4778945;29;20055;-90
2022/07/20 02:11:04;;;;;;;4.00;2.25;;;20.20;99.90;;;;;;4773378;29;20070;-88
2022/07/20 02:13:31;;;;;;;2.30;2.10;;;20.10;99.90;;;;;;4772863;29;20154;-89
2022/07/20 02:16:17;;;;;;;3.05;1.95;;;20.10;99.90;;;;;;4791386;29;20106;-90
2022/07/20 02:19:07;;;;;;;2.38;2.13;;;20.10;99.90;;;;;;4778857;29;20555;-90
2022/07/20 02:21:34;;;;;;;2.40;1.73;;;20.00;99.90;;;;;;4814325;29;20370;-88
2022/07/20 02:24:01;;;;;;;2.10;1.80;;;19.90;99.90;;;;;;4781584;29;20057;-88
2022/07/20 02:26:28;;;;;;;2.28;1.92;;;19.90;99.90;;;;;;4785227;29;20059;-88
2022/07/20 02:28:55;;;;;;;2.22;1.73;;;19.90;99.90;;;;;;4777618;29;20489;-93
2022/07/20 02:31:23;;;;;;;3.30;2.22;;;19.80;99.90;;;;;;4792214;29;20332;-88
2022/07/20 02:33:58;;;;;;;3.00;1.85;;;19.80;99.90;;;;;;4792727;29;20099;-93
2022/07/20 02:36:25;;;;;;;2.25;1.88;;;19.80;99.90;;;;;;4789025;29;20061;-91
2022/07/20 02:38:55;;;;;;;3.35;2.15;;;19.70;99.90;;;;;;4792842;29;20051;-93
2022/07/20 02:41:23;;;;;;;2.25;1.77;;;19.70;99.90;;;;;;4784785;29;20133;-93
2022/07/20 02:43:50;;;;;;;2.10;1.80;;;19.70;99.90;;;;;;4790498;29;20392;-93
2022/07/20 02:46:23;;;;;;;2.83;2.10;;;19.80;99.90;;;;;;4783978;29;20063;-93
2022/07/20 02:48:51;;;;;;;2.65;1.95;;;19.80;99.90;;;;;;4772097;29;20141;-93
2022/07/20 02:51:19;;;;;;;2.60;1.88;;;19.80;99.90;;;;;;4775023;29;20074;-94
2022/07/20 02:53:46;;;;;;;2.53;2.03;;;19.80;99.90;;;;;;4787619;29;20069;-91
2022/07/20 02:56:13;;;;;;;2.22;1.65;;;19.80;99.90;;;;;;4792690;29;20062;-92
2022/07/20 02:58:40;;;;;;;2.30;1.98;;;19.80;99.90;;;;;;4807340;29;20054;-91
2022/07/20 03:01:07;;;;;;;2.05;1.67;;;19.80;99.90;;;;;;4808692;29;20057;-89
2022/07/20 03:03:35;;;;;;;2.63;2.10;;;19.80;99.90;;;;;;4792490;29;20081;-87
2022/07/20 03:06:02;;;;;;;2.35;1.80;;;19.70;99.90;;;;;;4804980;29;20118;-89
2022/07/20 03:08:29;;;;;;;2.72;2.00;;;19.70;99.90;;;;;;4795489;29;20054;-88
2022/07/20 03:10:56;;;;;;;3.42;2.08;;;19.80;99.90;;;;;;4794783;29;20077;-88
2022/07/20 03:13:23;;;;;;;2.75;1.85;;;19.70;99.90;;;;;;4793819;29;20449;-89
2022/07/20 03:15:50;;;;;;;2.67;1.90;;;19.80;99.90;;;;;;4785659;29;20047;-88
2022/07/20 03:18:18;;;;;;;4.05;2.10;;;19.80;99.90;;;;;;4803890;29;20069;-88
2022/07/20 03:20:45;;;;;;;2.35;1.70;;;19.70;99.90;;;;;;4779161;29;20061;-88
2022/07/20 03:23:12;;;;;;;3.10;1.95;;;19.70;99.90;;;;;;4781465;29;20058;-87
2022/07/20 03:25:39;;;;;;;3.20;2.22;;;19.70;99.90;;;;;;4780424;29;20209;-87
2022/07/20 03:28:06;;;;;;;2.47;1.90;;;19.70;99.90;;;;;;4795287;29;20057;-88
2022/07/20 03:30:33;;;;;;;2.55;1.90;;;19.70;99.90;;;;;;4792630;29;20051;-90
2022/07/20 03:33:00;;;;;;;2.72;2.30;;;19.70;99.90;;;;;;4786261;29;20063;-88
2022/07/20 03:35:28;;;;;;;2.55;1.90;;;19.70;99.90;;;;;;4782541;29;20046;-90
2022/07/20 03:37:55;;;;;;;2.10;1.90;;;19.70;99.90;;;;;;4794353;29;20335;-89
2022/07/20 03:40:22;;;;;;;3.33;2.13;;;19.70;99.90;;;;;;4793511;29;20453;-90
2022/07/20 03:42:49;;;;;;;2.10;1.90;;;19.80;99.90;;;;;;4790360;29;20251;-88
2022/07/20 03:45:17;;;;;;;3.08;2.20;;;19.90;99.90;;;;;;4792278;29;20069;-87
2022/07/20 03:47:52;;;;;;;2.85;1.90;;;19.90;99.90;;;;;;4803125;29;20113;-89
2022/07/20 03:50:19;;;;;;;2.22;1.77;;;20.00;99.90;;;;;;4790559;29;20452;-89
2022/07/20 03:52:46;;;;;;;1.90;1.55;;;20.10;99.90;;;;;;4790182;29;20047;-89
2022/07/20 03:55:14;;;;;;;2.35;2.15;;;20.10;99.90;;;;;;4790590;29;20402;-88
2022/07/20 03:57:42;;;;;;;2.85;2.15;;;20.10;99.90;;;;;;4790339;29;20058;-89
2022/07/20 04:00:09;;;;;;;2.95;2.20;;;20.10;99.90;;;;;;4768597;29;20062;-91
2022/07/20 04:02:36;;;;;;;2.00;1.70;;;20.10;99.90;;;;;;4775219;29;20091;-89
2022/07/20 04:05:04;;;;;;;2.38;1.92;;;20.20;99.90;;;;;;4785112;29;20062;-88
2022/07/20 04:07:34;;;;;;;2.20;1.73;;;20.10;99.90;;;;;;4787596;29;20067;-91
2022/07/20 04:10:01;;;;;;;3.03;2.15;;;20.10;99.90;;;;;;4789138;29;20154;-90
2022/07/20 04:12:28;;;;;;;2.50;2.17;;;20.10;99.90;;;;;;4781505;29;20509;-90
2022/07/20 04:14:55;;;;;;;2.80;2.10;;;20.10;99.90;;;;;;4774818;29;20042;-88
2022/07/20 04:17:23;;;;;;;2.15;1.80;;;20.10;99.90;;;;;;4794064;29;20054;-90
2022/07/20 04:19:50;;;;;;;3.47;1.92;;;20.10;99.90;;;;;;4793172;29;20087;-90
2022/07/20 04:22:17;;;;;;;2.50;2.30;;;20.10;99.90;;;;;;4790709;29;20062;-90
2022/07/20 04:24:47;;;;;;;2.78;2.15;;;20.10;99.90;;;;;;4790199;29;20459;-90
2022/07/20 04:27:14;;;;;;;4.43;3.03;;;20.00;99.90;;;;;;4796380;29;20106;-90
2022/07/20 04:29:41;;;;;;;2.60;2.10;;;20.00;99.90;;;;;;4780142;29;20496;-89
2022/07/20 04:32:08;;;;;;;3.00;2.08;;;20.10;99.90;;;;;;4790572;29;20054;-90
2022/07/20 04:34:35;;;;;;;2.55;2.35;;;20.10;99.90;;;;;;4783375;29;20050;-87
2022/07/20 04:37:06;;;;;;;3.63;2.40;;;20.20;99.90;;;;;;4788963;29;20557;-88
2022/07/20 04:39:33;;;;;;;2.53;2.20;;;20.10;99.90;;;;;;4785127;29;20136;-88
2022/07/20 04:42:01;;;;;;;2.58;2.20;;;20.20;99.90;;;;;;4808346;29;20076;-91
2022/07/20 04:44:29;;;;;;;2.80;2.42;;;20.10;99.90;;;;;;4782243;29;20411;-88
2022/07/20 04:46:56;;;;;;;3.30;2.55;;;20.10;99.90;;;;;;4793831;29;20053;-88
2022/07/20 04:49:23;;;;;;;3.20;2.47;;;20.10;99.90;;;;;;4777970;29;20178;-89
2022/07/20 04:51:50;;;;;;;2.83;2.20;;;20.10;99.90;;;;;;4775242;29;20077;-90
2022/07/20 04:54:21;;;;;;;2.88;2.28;;;20.20;99.90;;;;;;4795226;29;20054;-90
2022/07/20 04:56:48;;;;;;;2.85;2.10;;;20.20;99.90;;;;;;4785583;29;20070;-90
2022/07/20 04:59:15;;;;;;;3.28;2.78;;;20.20;99.90;;;;;;4784747;29;20161;-89
2022/07/20 05:01:43;;;;;;;2.92;2.63;;;20.20;99.90;;;;;;4796376;29;20074;-89
2022/07/20 05:04:10;;;;;;;3.80;2.20;;;20.20;99.90;;;;;;4802278;29;20447;-90
2022/07/20 05:06:38;;;;;;;2.25;2.03;;;20.30;99.90;;;;;;4784474;29;20050;-94
2022/07/20 05:09:07;;;;;;;2.88;2.33;;;20.30;99.90;;;;;;4781259;29;20447;-92
2022/07/20 05:11:34;;;;;;;2.80;2.28;;;20.30;99.90;;;;;;4791844;29;20051;-89
2022/07/20 05:14:01;;;;;;;3.60;3.08;;;20.30;99.90;;;;;;4787528;29;20060;-91
2022/07/20 05:16:28;;;;;;;4.05;2.92;;;20.20;99.90;;;;;;4787478;29;20050;-92
2022/07/20 05:18:56;;;;;;;2.80;2.20;;;20.30;99.90;;;;;;4784420;29;20057;-95
2022/07/20 05:21:23;;;;;;;2.42;2.08;;;20.30;99.90;;;;;;4783174;29;20061;-90
2022/07/20 05:23:50;;;;;;;2.30;2.10;;;20.40;99.90;;;;;;4765854;29;20058;-89
2022/07/20 05:26:17;;;;;;;2.40;2.15;;;20.40;99.90;;;;;;4786467;29;20068;-90
2022/07/20 05:28:45;;;;;;;2.88;2.28;;;20.40;99.90;;;;;;4774995;29;20058;-90
2022/07/20 05:31:16;;;;;;;2.90;2.20;;;20.50;99.90;;;;;;4776172;29;20054;-88
2022/07/20 05:33:43;;;;;;;3.33;2.08;;;20.50;99.90;;;;;;4786573;29;20335;-90
2022/07/20 05:36:10;;;;;;;2.58;2.08;;;20.60;99.90;;;;;;4768824;29;20075;-89
2022/07/20 05:38:37;;;;;;;2.72;2.08;;;20.70;99.90;;;;;;4788972;29;20058;-89
2022/07/20 05:41:05;;;;;;;2.85;2.50;;;20.70;99.90;;;;;;4789759;29;20392;-88
2022/07/20 05:43:33;;;;;;;2.63;2.40;;;20.80;99.90;;;;;;4802364;29;20080;-90
2022/07/20 05:46:01;;;;;;;2.67;2.33;;;20.80;99.90;;;;;;4802695;29;20154;-89
2022/07/20 05:48:29;;;;;;;2.70;2.38;;;20.80;99.90;;;;;;4789200;29;20112;-88
2022/07/20 05:50:57;;;;;;;2.33;1.85;;;20.80;99.90;;;;;;4788274;29;20208;-89
2022/07/20 05:53:24;;;;;;;2.40;1.98;;;20.90;99.90;;;;;;4785244;29;20057;-89
2022/07/20 05:55:51;;;;;;;2.72;2.38;;;20.90;99.90;;;;;;4758044;29;20055;-89
2022/07/20 05:58:18;;;;;;;3.33;2.40;;;20.90;99.90;;;;;;4788060;29;20077;-89
2022/07/20 06:00:45;;;;;;;3.15;2.17;;;20.90;99.90;;;;;;4777767;29;20054;-88
2022/07/20 06:03:12;;;;;;;2.63;2.25;;;21.00;99.90;;;;;;4786338;29;20069;-89
2022/07/20 06:05:39;;;;;;;3.88;2.38;;;21.00;99.90;;;;;;4788414;29;20149;-88
2022/07/20 06:08:07;;;;;;;2.80;2.42;;;21.00;99.90;;;;;;4775790;29;20069;-89
2022/07/20 06:10:34;;;;;;;2.83;2.63;;;21.00;99.90;;;;;;4771629;29;20057;-89
2022/07/20 06:13:04;;;;;;;2.30;2.10;;;21.00;99.90;;;;;;4771539;29;20059;-88
2022/07/20 06:15:36;;;;;;;2.63;2.13;;;21.10;99.90;;;;;;4772673;29;20097;-88
2022/07/20 06:18:03;;;;;;;6.25;2.70;;;21.10;99.90;;;;;;4768918;29;20139;-89
2022/07/20 06:20:30;;;;;;;3.05;2.40;;;21.10;99.90;;;;;;4785803;29;20063;-90
2022/07/20 06:22:59;;;;;;;3.30;2.58;;;21.10;99.90;;;;;;4773695;29;20160;-89
2022/07/20 06:25:26;;;;;;;2.47;2.28;;;21.20;99.90;;;;;;4770238;29;20457;-89
2022/07/20 06:27:53;;;;;;;3.28;2.58;;;21.20;99.90;;;;;;4792539;29;20060;-90
2022/07/20 06:30:20;;;;;;;3.47;3.17;;;21.30;99.90;;;;;;4779989;29;20055;-90
2022/07/20 06:32:48;;;;;;;3.30;2.83;;;21.30;99.90;;;;;;4783956;29;20424;-90
2022/07/20 06:35:16;;;;;;;3.53;2.67;;;21.30;99.90;;;;;;4791683;29;20054;-90
2022/07/20 06:37:43;;;;;;;3.22;2.70;;;21.30;99.90;;;;;;4772774;29;20065;-90
2022/07/20 06:40:14;;;;;;;4.00;2.53;;;21.30;99.90;;;;;;4773257;29;20081;-90
2022/07/20 06:42:41;;;;;;;3.45;2.97;;;21.40;99.90;;;;;;4784323;29;20166;-92
2022/07/20 06:45:09;;;;;;;4.97;2.97;;;21.30;99.90;;;;;;4789167;29;20152;-91
2022/07/20 06:47:36;;;;;;;2.88;2.58;;;21.30;99.90;;;;;;4776849;29;20067;-91
2022/07/20 06:50:08;;;;;;;3.78;3.10;;;21.30;99.90;;;;;;4774220;29;20065;-90
2022/07/20 06:52:36;;;;;;;4.43;3.00;;;21.20;99.90;;;;;;4777487;29;20098;-90
2022/07/20 06:55:05;;;;;;;2.60;2.40;;;21.30;99.90;;;;;;4776099;29;20065;-92
2022/07/20 06:57:32;;;;;;;3.50;3.03;;;21.40;99.90;;;;;;4783628;29;20065;-90
2022/07/20 06:59:59;;;;;;;3.97;3.10;;;21.40;99.90;;;;;;4783699;29;20050;-90
2022/07/20 07:02:26;;;;;;;3.97;2.97;;;21.40;99.90;;;;;;4789819;29;20092;-90
2022/07/20 07:04:54;;;;;;;3.50;3.13;;;21.40;99.90;;;;;;4790336;29;20054;-91
2022/07/20 07:07:21;;;;;;;3.20;2.90;;;21.40;99.90;;;;;;4791761;29;20074;-91
2022/07/20 07:09:48;;;;;;;3.40;2.67;;;21.30;99.90;;;;;;4785864;29;20086;-88
2022/07/20 07:12:15;;;;;;;3.13;2.80;;;21.30;99.90;;;;;;4788195;29;20081;-89
2022/07/20 07:14:42;;;;;;;3.83;3.10;;;21.40;99.90;;;;;;4775765;29;20050;-90
2022/07/20 07:17:09;;;;;;;3.67;3.13;;;21.40;99.90;;;;;;4785406;29;20058;-90
2022/07/20 07:19:37;;;;;;;3.25;2.78;;;21.40;99.90;;;;;;4794881;29;20064;-90
2022/07/20 07:22:04;;;;;;;3.85;2.95;;;21.50;99.90;;;;;;4772576;29;20058;-89
2022/07/20 07:24:31;;;;;;;3.75;2.95;;;21.50;99.90;;;;;;4786028;29;20066;-90
2022/07/20 07:26:58;;;;;;;4.10;3.33;;;21.60;99.90;;;;;;4789974;29;20069;-88
2022/07/20 07:29:25;;;;;;;2.92;2.45;;;21.50;99.90;;;;;;4784636;29;20058;-91
2022/07/20 07:31:58;;;;;;;4.38;3.20;;;21.50;99.90;;;;;;4790311;29;20069;-92
2022/07/20 07:34:26;;;;;;;5.28;3.70;;;21.60;99.90;;;;;;4778963;29;20058;-93
2022/07/20 07:36:53;;;;;;;3.30;3.00;;;21.60;99.90;;;;;;4789105;29;20054;-91
2022/07/20 07:39:21;;;;;;;3.15;2.75;;;21.70;99.90;;;;;;4772958;29;20496;-90
2022/07/20 07:41:48;;;;;;;3.08;2.70;;;21.80;99.90;;;;;;4782865;29;20097;-90
2022/07/20 07:44:15;;;;;;;2.92;2.55;;;21.90;99.90;;;;;;4771380;29;20070;-91
2022/07/20 07:46:42;;;;;;;2.97;2.63;;;22.00;99.90;;;;;;4788547;29;20485;-91
2022/07/20 07:49:11;;;;;;;2.83;2.25;;;22.10;99.90;;;;;;4788502;29;20054;-91
2022/07/20 07:51:40;;;;;;;2.83;2.33;;;22.20;99.90;;;;;;4774043;29;20135;-90
2022/07/20 07:54:07;;;;;;;3.67;2.97;;;22.40;99.90;;;;;;4794742;29;20050;-90
2022/07/20 07:56:35;;;;;;;2.47;2.22;;;22.40;99.90;;;;;;4792959;29;20137;-90
2022/07/20 07:59:02;;;;;;;2.55;2.03;;;22.50;99.90;;;;;;4787713;29;20066;-90
2022/07/20 08:01:55;;;;;;;3.25;2.80;;;22.60;99.90;;;;;;4779304;29;20054;-91
2022/07/20 08:04:22;;;;;;;3.35;2.78;;;22.60;99.90;;;;;;4790569;29;20119;-91
2022/07/20 08:06:50;;;;;;;3.75;3.08;;;22.60;99.90;;;;;;4772003;29;20073;-91
2022/07/20 08:09:18;;;;;;;3.40;3.05;;;22.70;99.90;;;;;;4770196;29;20069;-92
2022/07/20 08:11:47;;;;;;;4.03;2.80;;;22.80;99.90;;;;;;4773661;29;20076;-92
2022/07/20 08:14:14;;;;;;;2.92;2.63;;;22.90;99.90;;;;;;4789736;29;20065;-90
2022/07/20 08:16:42;;;;;;;3.80;2.75;;;22.80;99.90;;;;;;4785653;29;20124;-91
2022/07/20 08:19:09;;;;;;;3.33;2.88;;;22.80;99.90;;;;;;4790845;29;20061;-91
2022/07/20 08:21:36;;;;;;;3.35;2.40;;;22.90;99.90;;;;;;4772830;29;20089;-92
2022/07/20 08:24:04;;;;;;;2.67;2.47;;;23.10;99.90;;;;;;4786345;29;20096;-91
2022/07/20 08:26:31;;;;;;;3.05;2.55;;;23.20;99.90;;;;;;4786899;29;20058;-91
2022/07/20 08:28:58;;;;;;;2.50;2.30;;;23.30;99.90;;;;;;4783302;29;20077;-91
2022/07/20 08:31:26;;;;;;;2.50;2.28;;;23.40;99.90;;;;;;4766839;29;20055;-93
2022/07/20 08:33:53;;;;;;;2.50;2.30;;;23.50;99.90;;;;;;4777208;29;20062;-91
2022/07/20 08:36:22;;;;;;;1.83;1.60;;;23.70;99.90;;;;;;4774339;29;20066;-93
2022/07/20 08:38:49;;;;;;;2.80;2.22;;;23.90;99.90;;;;;;4772706;29;20058;-91
2022/07/20 08:41:16;;;;;;;3.13;2.70;;;24.00;99.90;;;;;;4772752;29;20076;-91
2022/07/20 08:43:44;;;;;;;2.80;2.33;;;23.90;99.90;;;;;;4785710;29;20066;-92
2022/07/20 08:46:13;;;;;;;2.50;2.30;;;23.80;99.90;;;;;;4785382;29;20489;-92
2022/07/20 08:48:41;;;;;;;2.15;1.95;;;23.80;99.90;;;;;;4786649;29;20058;-92
2022/07/20 08:51:08;;;;;;;2.65;1.98;;;23.80;99.90;;;;;;4769254;29;20056;-93
2022/07/20 08:53:36;;;;;;;2.75;2.20;;;23.80;99.90;;;;;;4772067;29;20303;-94
2022/07/20 08:56:09;;;;;;;;;;;23.70;99.90;;;;;;4790276;29;20051;-93
2022/07/20 08:58:40;;;;;;;3.20;2.88;;;23.50;99.90;;;;;;4803262;29;19929;-91
2022/07/20 09:01:08;;;;;;;2.80;2.38;;;23.50;99.90;;;;;;4785561;29;20058;-92
2022/07/20 09:03:35;;;;;;;2.75;2.45;;;23.50;99.90;;;;;;4784782;29;20046;-92
2022/07/20 09:06:04;;;;;;;3.03;2.72;;;23.50;99.90;;;;;;4800183;29;20157;-92
2022/07/20 09:08:31;;;;;;;3.90;2.33;;;23.60;99.90;;;;;;4795339;29;20055;-92
2022/07/20 09:11:01;;;;;;;3.83;2.90;;;23.70;99.90;;;;;;4771961;29;20153;-93
2022/07/20 09:13:35;;;;;;;2.65;2.17;;;23.70;99.90;;;;;;4785514;29;20146;-91
2022/07/20 09:16:03;;;;;;;2.60;2.17;;;23.90;99.90;;;;;;4773073;29;20154;-92
2022/07/20 09:18:33;;;;;;;2.15;1.75;;;23.90;99.90;;;;;;4771468;29;20066;-92
2022/07/20 09:21:04;;;;;;;1.58;1.45;;;23.90;99.90;;;;;;4783916;29;20065;-91
2022/07/20 09:23:42;;;;;;;2.00;1.53;;;24.00;99.90;;;;;;4769550;29;20317;-91
2022/07/20 09:26:13;;;;;;;1.83;1.58;;;24.20;99.90;;;;;;4784517;29;20503;-91
2022/07/20 09:28:54;;;;;;;2.50;1.63;;;24.20;99.90;;;;;;4796738;29;20177;-92
2022/07/20 09:31:34;;;;;;;2.33;1.40;;;24.20;99.90;;;;;;4769934;29;20058;-91
2022/07/20 09:34:09;;;;;;;1.90;1.60;;;24.20;99.90;;;;;;4773636;29;20054;-91
2022/07/20 09:36:38;;;;;;;1.48;1.38;;;24.30;99.90;;;;;;4787187;29;20085;-91
2022/07/20 09:39:12;;;;;;;2.22;1.90;;;24.30;99.90;;;;;;4791293;29;20070;-90
2022/07/20 09:41:53;;;;;;;2.30;1.80;;;24.30;99.90;;;;;;4782502;29;20135;-91
2022/07/20 09:44:22;;;;;;;2.15;1.40;;;24.30;99.90;;;;;;4781747;29;20085;-92
2022/07/20 09:46:49;;;;;;;1.40;1.27;;;24.40;99.90;;;;;;4785973;29;20066;-91
2022/07/20 09:49:17;;;;;;;1.58;1.10;;;24.50;99.90;;;;;;4768201;29;20094;-91
2022/07/20 09:51:47;;;;;;;1.80;1.20;;;24.60;99.90;;;;;;4769590;29;20507;-92
2022/07/20 09:54:16;;;;;;;1.45;1.20;;;24.60;99.70;;;;;;4767406;29;20066;-92
2022/07/20 09:56:47;;;;;;;1.80;1.35;;;24.60;99.90;;;;;;4767739;29;20065;-92
2022/07/20 09:59:14;;;;;;;1.52;1.38;;;24.60;99.90;;;;;;4766513;29;20391;-91
2022/07/20 10:01:50;;;;;;;2.13;1.25;;;24.80;99.90;;;;;;4774746;29;20111;-92
2022/07/20 10:04:17;;;;;;;1.25;1.15;;;25.10;99.50;;;;;;4771672;29;20119;-91
2022/07/20 10:06:50;;;;;;;1.52;1.35;;;25.40;98.80;;;;;;4771734;29;20051;-93
2022/07/20 10:09:17;;;;;;;1.92;1.40;;;25.50;98.30;;;;;;4784088;29;20061;-90
2022/07/20 10:11:45;;;;;;;1.95;1.20;;;25.60;98.30;;;;;;4785276;29;20072;-91
2022/07/20 10:14:12;;;;;;;1.83;1.30;;;25.70;97.80;;;;;;4789223;29;20054;-91
2022/07/20 10:16:43;;;;;;;1.25;0.98;;;25.90;97.30;;;;;;4776255;29;20058;-93
2022/07/20 10:19:10;;;;;;;1.45;1.25;;;26.20;96.90;;;;;;4792123;29;20081;-92
2022/07/20 10:22:01;;;;;;;1.42;1.10;;;26.50;96.00;;;;;;4791099;29;20046;-92
2022/07/20 10:24:31;;;;;;;1.48;1.05;;;26.60;95.00;;;;;;4785168;29;20063;-93
2022/07/20 10:27:13;;;;;;;0.90;0.80;;;26.50;94.60;;;;;;4782239;29;20263;-91
2022/07/20 10:29:45;;;;;;;1.75;1.40;;;26.50;94.90;;;;;;4815863;29;20458;-93
2022/07/20 10:32:23;;;;;;;1.85;1.13;;;26.50;94.70;;;;;;4793763;29;20078;-91
2022/07/20 10:34:57;;;;;;;1.17;1.08;;;26.50;94.50;;;;;;4757820;29;20220;-90
2022/07/20 10:37:41;;;;;;;0.88;0.82;;;26.70;94.50;;;;;;4772167;29;20058;-90
2022/07/20 10:40:16;;;;;;;1.30;0.90;;;27.10;93.90;;;;;;4777952;29;20070;-90
2022/07/20 10:43:12;;;;;;;1.00;0.80;;;27.40;93.50;;;;;;4774817;29;20058;-87
2022/07/20 10:45:40;;;;;;;1.25;0.95;;;27.50;93.00;;;;;;4792204;29;20050;-91
2022/07/20 10:48:13;;;;;;;0.73;0.73;;;27.50;92.70;;;;;;4779952;29;20066;-90
2022/07/20 10:50:53;;;;;;;1.20;0.80;;;27.30;92.60;;;;;;4807353;29;20105;-92
2022/07/20 10:53:24;;;;;;;1.85;1.10;;;27.20;92.50;;;;;;4789733;29;20070;-92
2022/07/20 10:56:03;;;;;;;1.85;0.80;;;27.30;92.10;;;;;;4812207;29;20058;-93
2022/07/20 10:58:41;;;;;;;1.67;1.15;;;27.50;91.90;;;;;;4773402;29;20139;-91
2022/07/20 11:01:10;;;;;;;1.10;1.00;;;27.50;91.60;;;;;;4798364;29;20062;-92
2022/07/20 11:03:43;;;;;;;1.23;1.05;;;27.60;91.20;;;;;;4794994;29;20171;-93
2022/07/20 11:06:18;;;;;;;1.20;1.00;;;27.80;90.90;;;;;;4801551;29;20051;-92
2022/07/20 11:08:55;;;;;;;1.10;0.73;;;27.90;90.50;;;;;;4796942;29;20462;-95
2022/07/20 11:11:30;;;;;;;1.60;1.15;;;27.90;90.60;;;;;;4797774;29;20062;-93
2022/07/20 11:13:58;;;;;;;2.17;1.10;;;27.80;90.70;;;;;;4827737;29;20096;-92
2022/07/20 11:16:26;;;;;;;1.60;1.02;;;27.70;89.30;;;;;;4789442;29;20815;-91
2022/07/20 11:18:55;;;;;;;1.80;1.10;;;27.60;90.10;;;;;;4801466;29;20050;-93
2022/07/20 11:21:45;;;;;;;1.00;0.90;;;27.60;91.20;;;;;;4784684;29;20054;-93
2022/07/20 11:24:25;;;;;;;2.72;1.35;;;27.60;91.60;;;;;;4804162;29;20055;-94
2022/07/20 11:26:55;;;;;;;2.03;1.15;;;27.80;91.60;;;;;;4787658;29;20062;-93
2022/07/20 11:29:23;;;;;;;0.88;0.80;;;27.90;91.50;;;;;;4787376;29;20054;-93
2022/07/20 11:31:50;;;;;;;1.08;0.88;;;28.20;91.60;;;;;;4800124;29;20057;-92
2022/07/20 11:34:20;;;;;;;2.05;1.00;;;28.60;91.30;;;;;;4784472;29;20122;-93
2022/07/20 11:36:49;;;;;;;0.98;0.70;;;29.00;91.20;;;;;;4799120;29;20054;-92
2022/07/20 11:39:17;;;;;;;1.08;0.70;;;29.20;89.60;;;;;;4795198;29;20119;-93
2022/07/20 11:41:45;;;;;;;1.27;0.80;;;28.80;89.90;;;;;;4780953;29;20080;-92
2022/07/20 11:44:22;;;;;;;1.27;0.77;;;29.00;89.60;;;;;;4777155;29;20174;-92
2022/07/20 11:46:49;;;;;;;1.70;0.82;;;29.20;89.30;;;;;;4790076;29;20074;-93
2022/07/20 11:49:18;;;;;;;1.58;0.80;;;29.30;88.30;;;;;;4795534;29;20064;-93
2022/07/20 11:51:58;;;;;;;1.30;0.80;;;29.30;87.50;;;;;;4795962;29;20133;-92
2022/07/20 11:54:32;;;;;;;0.70;0.60;;;29.50;85.60;;;;;;4816174;29;20068;-94
2022/07/20 11:57:00;;;;;;;0.88;0.70;;;29.60;85.90;;;;;;4804912;29;20065;-93
2022/07/20 11:59:33;;;;;;;1.02;0.68;;;29.60;85.90;;;;;;4796492;29;20062;-94
2022/07/20 12:02:01;;;;;;;0.68;0.68;;;29.10;87.00;;;;;;4797822;29;20104;-93
2022/07/20 12:04:34;;;;;;;0.98;0.80;;;29.00;87.20;;;;;;4786392;29;20078;-93
2022/07/20 12:08:07;;;;;;;1.25;0.80;;;29.40;86.80;;;;;;4786437;29;20067;-93
2022/07/20 12:09:53;;;;;;;0.77;0.40;;;29.70;86.10;;;;;;4821853;29;20084;-93
2022/07/20 12:12:45;;;;;;;0.90;0.57;;;30.10;85.00;;;;;;4798662;29;20069;-93
2022/07/20 12:15:20;;;;;;;1.05;0.52;;;30.00;83.90;;;;;;4810526;29;20568;-93
2022/07/20 12:17:51;;;;;;;1.67;0.90;;;29.60;83.50;;;;;;4798492;29;20218;-93
2022/07/20 12:20:20;;;;;;;1.45;1.00;;;29.40;84.20;;;;;;4801753;29;20819;-93
2022/07/20 12:22:58;;;;;;;1.23;0.80;;;29.40;84.60;;;;;;4805023;29;20061;-93
2022/07/20 12:25:43;;;;;;;0.60;0.60;;;29.20;85.00;;;;;;4794934;29;20054;-94
2022/07/20 12:28:10;;;;;;;1.98;0.60;;;29.10;84.40;;;;;;4783391;29;20153;-93
2022/07/20 12:31:25;;;;;;;0.93;0.80;;;28.80;84.10;;;;;;4795868;29;20065;-92
2022/07/20 12:34:08;;;;;;;1.02;0.70;;;28.60;85.00;;;;;;4795681;29;20050;-92
2022/07/20 12:36:43;;;;;;;1.25;0.90;;;28.70;85.20;;;;;;4797844;29;20046;-92
2022/07/20 12:39:14;;;;;;;1.35;0.88;;;29.50;84.50;;;;;;4784203;29;20225;-93
2022/07/20 12:41:43;;;;;;;1.33;0.90;;;29.60;83.10;;;;;;4810235;29;20061;-93
2022/07/20 12:44:31;;;;;;;1.42;1.10;;;29.50;82.60;;;;;;4786566;29;20054;-93
2022/07/20 12:47:00;;;;;;;1.98;1.02;;;29.60;82.90;;;;;;4792361;29;20068;-94
2022/07/20 12:49:27;;;;;;;1.23;1.00;;;29.90;81.10;;;;;;4805828;29;20185;-93
2022/07/20 12:51:55;;;;;;;1.40;0.95;;;30.70;80.70;;;;;;4786824;29;20118;-92
2022/07/20 12:54:23;;;;;;;0.90;0.70;;;31.10;78.40;;;;;;4780471;29;20093;-93
2022/07/20 12:57:16;;;;;;;0.80;0.50;;;31.00;78.30;;;;;;4800739;29;20058;-93
2022/07/20 12:59:43;;;;;;;1.42;0.80;;;31.00;78.10;;;;;;4789676;29;20129;-92
2022/07/20 13:02:11;;;;;;;0.73;0.50;;;30.50;77.80;;;;;;4791618;29;20065;-93
2022/07/20 13:04:39;;;;;;;0.88;0.50;;;29.80;78.50;;;;;;4778965;29;20079;-92
2022/07/20 13:07:06;;;;;;;1.33;0.75;;;29.60;79.40;;;;;;4782985;29;20077;-94
2022/07/20 13:09:35;;;;;;;0.52;0.47;;;29.40;79.70;;;;;;4797849;29;20490;-93
2022/07/20 13:12:02;;;;;;;0.88;0.55;;;29.20;79.50;;;;;;4792156;29;20047;-93
2022/07/20 13:14:31;;;;;;;0.82;0.63;;;28.80;79.90;;;;;;4775890;29;20119;-93
2022/07/20 13:16:58;;;;;;;0.95;0.55;;;28.50;81.50;;;;;;4778879;29;20392;-93